Time;durP1;ratioP1;P1;durP2;ratioP2;P2;SDS_P1;SDS_P2;PMS_P1;PMS_P2;Temp;Humidity;BMP_temperature;BMP_pressure;BME280_temperature;BME280_humidity;BME280_pressure;Samples;Min_cycle;Max_cycle;Signal;HPM_P1;HPM_P2
2022/03/30 00:01:01;;;;;;;49.95;21.92;;;;;;;8.02;79.59;99634.47;6198255;22;20030;-73
2022/03/30 00:03:27;;;;;;;56.25;22.75;;;;;;;8.06;79.53;99638.28;6248028;22;20006;-74
2022/03/30 00:05:55;;;;;;;52.75;21.73;;;;;;;7.97;80.19;99634.44;6275044;22;20012;-74
2022/03/30 00:08:21;;;;;;;55.42;20.70;;;;;;;8.05;79.84;99625.75;6249238;22;20007;-74
2022/03/30 00:10:46;;;;;;;47.58;21.33;;;;;;;8.07;80.15;99623.56;6275678;22;20086;-74
2022/03/30 00:13:17;;;;;;;52.22;22.45;;;;;;;8.15;78.96;99636.66;6251910;22;20422;-73
2022/03/30 00:15:43;;;;;;;52.17;20.92;;;;;;;8.08;79.86;99625.22;6274257;22;19999;-73
2022/03/30 00:18:11;;;;;;;46.70;21.42;;;;;;;8.09;79.12;99626.00;6276363;22;20077;-75
2022/03/30 00:20:36;;;;;;;50.03;21.40;;;;;;;8.04;79.39;99629.56;6250117;22;20008;-75
2022/03/30 00:23:02;;;;;;;50.13;20.17;;;;;;;8.00;79.11;99614.84;6279411;22;20375;-76
2022/03/30 00:25:28;;;;;;;47.13;21.48;;;;;;;8.00;79.20;99617.56;6281221;22;20003;-73
2022/03/30 00:27:53;;;;;;;51.20;21.88;;;;;;;8.09;78.91;99631.47;6277776;22;20007;-76
2022/03/30 00:30:20;;;;;;;55.53;22.98;;;;;;;8.06;78.63;99621.94;6252524;22;20491;-72
2022/03/30 00:32:51;;;;;;;45.50;21.30;;;;;;;7.95;79.00;99614.84;6274713;22;20004;-76
2022/03/30 00:35:16;;;;;;;47.88;21.25;;;;;;;7.94;78.63;99613.19;6256971;22;20008;-73
2022/03/30 00:37:49;;;;;;;48.45;21.63;;;;;;;8.02;78.51;99620.84;6285841;22;20027;-74
2022/03/30 00:40:19;;;;;;;53.38;24.23;;;;;;;7.95;78.25;99603.94;6283209;22;20023;-75
2022/03/30 00:42:50;;;;;;;54.22;23.75;;;;;;;7.94;78.61;99596.84;6256178;22;20030;-74
2022/03/30 00:45:18;;;;;;;58.28;25.60;;;;;;;8.00;78.08;99595.78;6284520;22;20000;-75
2022/03/30 00:47:45;;;;;;;46.40;21.33;;;;;;;8.04;77.69;99596.88;6276872;22;20085;-74
2022/03/30 00:50:13;;;;;;;48.17;23.23;;;;;;;8.09;77.43;99605.06;6278650;22;20004;-74
2022/03/30 00:52:44;;;;;;;57.88;26.27;;;;;;;7.97;77.95;99596.31;6278133;22;20027;-75
2022/03/30 00:55:17;;;;;;;50.70;22.60;;;;;;;7.91;77.57;99583.78;6276237;22;20083;-75
2022/03/30 00:57:43;;;;;;;49.90;23.58;;;;;;;8.01;77.95;99613.75;6249956;22;20079;-74
2022/03/30 01:00:15;;;;;;;53.03;25.48;;;;;;;7.95;77.63;99606.66;6279246;22;20008;-74
2022/03/30 01:02:43;;;;;;;46.00;21.52;;;;;;;7.97;77.79;99613.50;6276772;22;20024;-75
2022/03/30 01:05:09;;;;;;;48.28;22.80;;;;;;;7.85;77.74;99589.19;6272477;22;20011;-73
2022/03/30 01:07:35;;;;;;;59.05;23.70;;;;;;;7.88;78.14;99584.31;6275736;22;20008;-75
2022/03/30 01:10:03;;;;;;;49.55;24.13;;;;;;;7.93;78.05;99600.66;6250675;22;20022;-73
2022/03/30 01:12:29;;;;;;;47.50;22.88;;;;;;;8.01;77.46;99608.31;6246464;22;20007;-75
2022/03/30 01:14:54;;;;;;;57.65;25.27;;;;;;;7.96;78.01;99600.16;6272962;22;20008;-74
2022/03/30 01:17:20;;;;;;;55.58;23.90;;;;;;;7.99;77.42;99605.84;6274071;22;20004;-73
2022/03/30 01:19:45;;;;;;;49.70;21.58;;;;;;;8.04;78.20;99602.31;6276163;22;20012;-73
2022/03/30 01:22:11;;;;;;;47.85;21.80;;;;;;;8.07;77.65;99595.53;6245346;22;20488;-74
2022/03/30 01:24:37;;;;;;;53.53;24.08;;;;;;;8.03;78.10;99587.06;6220912;22;20014;-73
2022/03/30 01:27:03;;;;;;;48.88;23.02;;;;;;;8.02;78.41;99590.91;6243625;22;20008;-73
2022/03/30 01:32:26;;;;;;;56.13;23.53;;;;;;;8.06;77.37;99589.28;6276557;22;20514;-73
2022/03/30 01:35:03;;;;;;;57.47;25.30;;;;;;;8.02;77.57;99582.72;6275672;22;19999;-73
2022/03/30 01:37:30;;;;;;;53.80;25.85;;;;;;;8.00;77.63;99580.28;6246340;22;20012;-77
2022/03/30 01:39:57;;;;;;;53.67;24.08;;;;;;;7.96;77.75;99572.91;6273727;22;20011;-74
2022/03/30 01:42:23;;;;;;;53.60;23.17;;;;;;;7.90;77.53;99565.81;6222617;22;20010;-75
2022/03/30 01:44:50;;;;;;;49.05;23.83;;;;;;;7.89;77.87;99572.34;6273545;22;20011;-72
2022/03/30 01:47:15;;;;;;;60.58;27.02;;;;;;;7.88;78.38;99560.63;6276501;22;20010;-75
2022/03/30 01:49:41;;;;;;;56.05;24.45;;;;;;;7.89;77.61;99561.47;6251058;22;20008;-75
2022/03/30 01:52:07;;;;;;;45.20;20.65;;;;;;;7.91;78.40;99559.28;6246213;22;20153;-75
2022/03/30 01:54:39;;;;;;;47.42;22.35;;;;;;;7.92;77.83;99555.47;6273629;22;20010;-73
2022/03/30 01:57:05;;;;;;;56.17;24.05;;;;;;;7.96;78.66;99553.88;6275710;22;20381;-75
2022/03/30 01:59:30;;;;;;;43.92;22.70;;;;;;;7.98;78.16;99560.66;6276287;22;20004;-74
2022/03/30 02:01:55;;;;;;;56.67;23.42;;;;;;;8.00;77.46;99552.22;6274351;22;20007;-75
2022/03/30 02:04:22;;;;;;;48.33;20.65;;;;;;;8.00;78.23;99552.22;6276038;22;20011;-74
2022/03/30 02:06:48;;;;;;;56.10;23.35;;;;;;;8.01;77.90;99549.22;6243253;22;20098;-76
2022/03/30 02:09:14;;;;;;;42.08;21.63;;;;;;;8.04;77.92;99545.16;6197759;22;20033;-75
2022/03/30 02:11:40;;;;;;;49.17;22.85;;;;;;;8.03;77.23;99551.66;6272802;22;20058;-75
2022/03/30 02:14:06;;;;;;;45.80;22.80;;;;;;;8.01;77.73;99549.22;6246648;22;20011;-73
2022/03/30 02:16:31;;;;;;;42.15;19.80;;;;;;;8.01;77.82;99549.22;6248315;22;20377;-74
2022/03/30 02:18:57;;;;;;;48.22;21.73;;;;;;;8.06;77.52;99540.25;6245480;22;20008;-74
2022/03/30 02:21:24;;;;;;;54.17;24.85;;;;;;;8.04;77.56;99547.88;6272912;22;20000;-75
2022/03/30 02:23:51;;;;;;;52.38;25.80;;;;;;;8.01;77.58;99543.78;6275946;22;20005;-73
2022/03/30 02:26:17;;;;;;;56.50;22.73;;;;;;;7.99;78.04;99543.22;6275472;22;20625;-73
2022/03/30 02:28:44;;;;;;;54.47;26.33;;;;;;;7.95;77.25;99547.59;6247288;22;20011;-74
2022/03/30 02:31:12;;;;;;;51.40;24.63;;;;;;;7.91;77.20;99542.94;6277301;22;20031;-74
2022/03/30 02:33:38;;;;;;;51.97;23.92;;;;;;;7.89;76.88;99545.13;6246460;22;20007;-75
2022/03/30 02:36:04;;;;;;;54.22;24.52;;;;;;;7.85;77.22;99537.47;6274560;22;20007;-74
2022/03/30 02:38:30;;;;;;;45.95;22.08;;;;;;;7.85;77.34;99534.75;6275444;22;20061;-74
2022/03/30 02:40:55;;;;;;;54.85;24.02;;;;;;;7.90;77.81;99530.41;6245893;22;20035;-73
2022/03/30 02:43:21;;;;;;;54.25;25.27;;;;;;;7.90;77.60;99538.59;6222047;22;20013;-73
2022/03/30 02:45:47;;;;;;;47.40;22.33;;;;;;;7.89;77.85;99528.81;6278220;22;20042;-74
2022/03/30 02:48:18;;;;;;;42.28;20.38;;;;;;;7.86;78.23;99525.50;6247960;22;20034;-74
2022/03/30 02:50:54;;;;;;;58.30;25.02;;;;;;;7.84;78.02;99526.88;6245461;22;20011;-73
2022/03/30 02:53:20;;;;;;;49.35;21.73;;;;;;;7.82;78.28;99510.81;6275558;22;20004;-74
2022/03/30 02:55:46;;;;;;;50.28;22.95;;;;;;;7.84;78.29;99522.25;6272643;22;20007;-74
2022/03/30 02:58:12;;;;;;;47.85;21.98;;;;;;;7.81;78.09;99514.63;6278349;22;20073;-73
2022/03/30 03:00:39;;;;;;;51.45;22.77;;;;;;;7.83;78.71;99514.38;6250844;22;20458;-75
2022/03/30 03:03:07;;;;;;;50.17;23.88;;;;;;;7.83;77.66;99514.38;6279804;22;20007;-73
2022/03/30 03:05:38;;;;;;;56.38;24.52;;;;;;;7.78;77.71;99509.75;6278278;22;20029;-74
2022/03/30 03:08:07;;;;;;;42.78;22.55;;;;;;;7.75;77.98;99507.53;6250092;22;20011;-74
2022/03/30 03:10:34;;;;;;;50.35;23.23;;;;;;;7.77;78.24;99509.97;6250682;22;20015;-74
2022/03/30 03:13:03;;;;;;;47.47;23.98;;;;;;;7.78;77.93;99507.00;6249206;22;20012;-72
2022/03/30 03:15:30;;;;;;;46.33;21.95;;;;;;;7.78;78.19;99507.00;6275604;22;19999;-74
2022/03/30 03:17:55;;;;;;;34.47;18.08;;;;;;;7.81;77.62;99511.91;6277008;22;20039;-73
2022/03/30 03:20:21;;;;;;;45.50;20.27;;;;;;;7.83;77.94;99509.72;6250301;22;20007;-75
2022/03/30 03:22:46;;;;;;;48.65;23.35;;;;;;;7.81;78.50;99501.03;6274776;22;20004;-72
2022/03/30 03:25:12;;;;;;;49.72;23.45;;;;;;;7.85;78.00;99507.53;6275005;22;20091;-75
2022/03/30 03:27:38;;;;;;;51.22;25.10;;;;;;;7.80;77.51;99493.94;6276036;22;20086;-73
2022/03/30 03:30:05;;;;;;;48.33;23.77;;;;;;;7.83;78.17;99501.56;6244861;22;20357;-73
2022/03/30 03:32:31;;;;;;;49.03;24.35;;;;;;;7.84;77.71;99495.03;6247769;22;20018;-76
2022/03/30 03:34:57;;;;;;;46.40;22.95;;;;;;;7.83;77.06;99507.00;6247013;22;20422;-74
2022/03/30 03:37:22;;;;;;;42.28;21.45;;;;;;;7.82;77.95;99501.84;6249052;22;20007;-75
2022/03/30 03:39:50;;;;;;;52.22;24.17;;;;;;;7.80;77.62;99502.09;6273628;22;20057;-75
2022/03/30 03:42:18;;;;;;;55.08;24.65;;;;;;;7.80;76.86;99502.09;6247318;22;20003;-76
2022/03/30 03:44:44;;;;;;;51.75;23.48;;;;;;;7.78;76.80;99487.13;6249176;22;20008;-74
2022/03/30 03:47:09;;;;;;;33.65;19.02;;;;;;;7.79;77.12;99488.78;6275840;22;20061;-74
2022/03/30 03:49:36;;;;;;;54.90;24.92;;;;;;;7.79;77.51;99494.22;6275866;22;20038;-73
2022/03/30 03:52:05;;;;;;;50.95;25.60;;;;;;;7.67;76.67;99478.94;6226517;22;20133;-75
2022/03/30 03:54:31;;;;;;;51.08;24.02;;;;;;;7.77;76.95;99499.94;6250113;22;20014;-75
2022/03/30 03:56:57;;;;;;;49.97;25.50;;;;;;;7.65;77.07;99483.03;6250420;22;20010;-75
2022/03/30 03:59:22;;;;;;;51.92;24.70;;;;;;;7.58;77.27;99480.56;6250413;22;20390;-74
2022/03/30 04:01:48;;;;;;;48.83;23.45;;;;;;;7.56;77.53;99482.72;6247433;22;20010;-75
2022/03/30 04:04:13;;;;;;;47.15;24.77;;;;;;;7.62;77.21;99492.56;6251069;22;20080;-73
2022/03/30 04:06:39;;;;;;;47.78;24.45;;;;;;;7.59;76.11;99487.63;6250215;22;20018;-74
2022/03/30 04:09:04;;;;;;;44.85;23.02;;;;;;;7.58;75.97;99488.75;6275165;22;20339;-73
2022/03/30 04:11:30;;;;;;;51.13;25.08;;;;;;;7.56;77.11;99488.16;6275874;22;20620;-72
2022/03/30 04:13:56;;;;;;;44.97;22.83;;;;;;;7.56;76.17;99488.16;6276167;22;20014;-74
2022/03/30 04:16:22;;;;;;;46.58;24.70;;;;;;;7.57;76.46;99483.56;6249368;22;20015;-72
2022/03/30 04:18:48;;;;;;;51.47;23.35;;;;;;;7.56;76.03;99490.91;6246502;22;20002;-73
2022/03/30 04:21:13;;;;;;;43.55;22.38;;;;;;;7.55;76.47;99488.44;6248520;22;20007;-73
2022/03/30 04:23:39;;;;;;;39.30;21.92;;;;;;;7.51;76.52;99486.25;6249837;22;20064;-71
2022/03/30 04:26:04;;;;;;;52.40;24.05;;;;;;;7.51;76.19;99483.53;6254693;22;20007;-73
2022/03/30 04:28:30;;;;;;;44.53;23.02;;;;;;;7.50;75.52;99484.66;6281148;22;20052;-72
2022/03/30 04:30:56;;;;;;;45.53;24.10;;;;;;;7.48;75.73;99486.81;6252567;22;20760;-74
2022/03/30 04:33:22;;;;;;;48.53;24.02;;;;;;;7.47;75.61;99490.59;6251942;22;20018;-74
2022/03/30 04:35:50;;;;;;;50.33;25.48;;;;;;;7.47;75.83;99489.78;6220820;22;20038;-75
2022/03/30 04:38:15;;;;;;;45.30;23.77;;;;;;;7.42;76.70;99481.63;6246204;22;20010;-74
2022/03/30 04:40:41;;;;;;;44.30;22.75;;;;;;;7.44;76.83;99485.69;6245919;22;20004;-74
2022/03/30 04:43:07;;;;;;;50.88;25.70;;;;;;;7.40;76.63;99479.16;6271939;22;20070;-74
2022/03/30 04:45:33;;;;;;;54.45;26.25;;;;;;;7.40;76.66;99473.72;6274282;22;20000;-73
2022/03/30 04:47:59;;;;;;;49.45;23.42;;;;;;;7.44;76.13;99485.69;6275410;22;20030;-74
2022/03/30 04:50:25;;;;;;;57.25;26.45;;;;;;;7.44;77.19;99488.41;6273543;22;20007;-73
2022/03/30 04:52:51;;;;;;;55.58;26.48;;;;;;;7.43;76.19;99489.53;6275433;22;20003;-74
2022/03/30 04:55:16;;;;;;;52.95;25.10;;;;;;;7.42;76.58;99487.88;6247163;22;20019;-73
2022/03/30 04:57:42;;;;;;;52.60;25.35;;;;;;;7.42;76.62;99482.44;6273853;22;20007;-73
2022/03/30 05:00:09;;;;;;;55.03;25.27;;;;;;;7.36;76.20;99478.09;6278122;22;20034;-75
2022/03/30 05:02:36;;;;;;;50.08;22.92;;;;;;;7.39;75.99;99482.16;6274424;22;20022;-74
2022/03/30 05:05:02;;;;;;;47.42;22.15;;;;;;;7.40;76.92;99483.78;6252594;22;20031;-73
2022/03/30 05:07:28;;;;;;;50.75;22.92;;;;;;;7.40;76.66;99484.59;6281803;22;20007;-73
2022/03/30 05:09:54;;;;;;;46.90;22.80;;;;;;;7.39;77.01;99482.97;6279324;22;20011;-73
2022/03/30 05:12:19;;;;;;;59.47;25.33;;;;;;;7.38;76.07;99470.47;6242196;22;20029;-73
2022/03/30 05:14:45;;;;;;;58.33;24.02;;;;;;;7.39;76.20;99477.53;6247519;22;20022;-75
2022/03/30 05:17:10;;;;;;;47.42;23.27;;;;;;;7.38;76.69;99475.91;6274122;22;20000;-72
2022/03/30 05:19:39;;;;;;;49.95;24.98;;;;;;;7.37;76.53;99468.81;6271702;22;20008;-73
2022/03/30 05:22:07;;;;;;;46.17;20.60;;;;;;;7.37;76.30;99474.25;6248576;22;20314;-73
2022/03/30 05:24:33;;;;;;;46.80;23.30;;;;;;;7.35;75.96;99471.00;6223401;22;20102;-75
2022/03/30 05:26:58;;;;;;;52.92;23.20;;;;;;;7.31;76.48;99469.91;6276276;22;20302;-75
2022/03/30 05:29:24;;;;;;;52.88;24.30;;;;;;;7.30;76.49;99469.09;6200728;22;20008;-72
2022/03/30 05:31:50;;;;;;;45.42;21.98;;;;;;;7.30;76.09;99470.97;6274554;22;20031;-75
2022/03/30 05:34:16;;;;;;;50.28;22.70;;;;;;;7.25;76.47;99465.53;6260844;22;20022;-74
2022/03/30 05:36:41;;;;;;;46.85;22.70;;;;;;;7.29;76.08;99466.63;6279085;22;20008;-75
2022/03/30 05:39:07;;;;;;;45.58;21.58;;;;;;;7.31;76.34;99469.91;6248079;22;20035;-73
2022/03/30 05:41:33;;;;;;;42.42;19.85;;;;;;;7.27;75.53;99463.34;6249755;22;20078;-75
2022/03/30 05:43:59;;;;;;;51.28;23.27;;;;;;;7.28;76.20;99470.44;6274539;22;20008;-73
2022/03/30 05:46:25;;;;;;;44.75;21.65;;;;;;;7.28;75.78;99478.59;6249682;22;20609;-74
2022/03/30 05:48:50;;;;;;;48.72;21.73;;;;;;;7.26;75.68;99472.63;6222208;22;20090;-72
2022/03/30 05:51:16;;;;;;;46.72;23.08;;;;;;;7.28;74.70;99475.88;6273845;22;20378;-73
2022/03/30 05:53:41;;;;;;;41.10;20.52;;;;;;;7.29;75.29;99477.50;6273880;22;20008;-75
2022/03/30 05:56:06;;;;;;;48.80;22.48;;;;;;;7.27;74.49;99479.66;6223182;22;20110;-73
2022/03/30 05:58:32;;;;;;;39.80;20.33;;;;;;;7.29;75.09;99474.78;6231483;22;20413;-74
2022/03/30 06:00:57;;;;;;;37.42;19.10;;;;;;;7.34;75.25;99474.78;6249844;22;20011;-72
2022/03/30 06:03:23;;;;;;;36.90;19.15;;;;;;;7.36;73.90;99478.09;6254613;22;20007;-73
2022/03/30 06:05:50;;;;;;;45.33;21.10;;;;;;;7.37;74.12;99476.16;6250230;22;20276;-73
2022/03/30 06:08:16;;;;;;;43.22;21.13;;;;;;;7.39;73.97;99482.16;6279666;22;20007;-73
2022/03/30 06:10:43;;;;;;;42.35;21.48;;;;;;;7.36;74.67;99477.25;6289603;22;20008;-74
2022/03/30 06:13:08;;;;;;;42.83;20.38;;;;;;;7.34;74.32;99486.50;6290528;22;20014;-74
2022/03/30 06:15:34;;;;;;;46.47;20.73;;;;;;;7.32;74.34;99487.84;6258601;22;20027;-74
2022/03/30 06:18:00;;;;;;;43.05;21.13;;;;;;;7.31;73.81;99486.22;6283040;22;20012;-76
2022/03/30 06:20:26;;;;;;;43.13;21.23;;;;;;;7.33;74.53;99490.31;6254451;22;20008;-77
2022/03/30 06:22:53;;;;;;;48.00;20.70;;;;;;;7.36;74.08;99485.41;6248305;22;20063;-74
2022/03/30 06:25:23;;;;;;;41.13;20.38;;;;;;;7.36;74.23;99488.13;6250292;22;20008;-74
2022/03/30 06:27:49;;;;;;;47.13;21.25;;;;;;;7.36;73.51;99488.97;6276364;22;20027;-74
2022/03/30 06:30:14;;;;;;;45.60;22.95;;;;;;;7.34;74.00;99485.69;6239252;22;20024;-74
2022/03/30 06:32:40;;;;;;;50.08;23.02;;;;;;;7.37;73.58;99484.34;6246291;23;20005;-74
2022/03/30 06:35:06;;;;;;;47.30;23.17;;;;;;;7.36;73.44;99488.97;6217177;23;20083;-74
2022/03/30 06:37:32;;;;;;;41.95;21.50;;;;;;;7.36;73.93;99483.53;6214375;23;20093;-74
2022/03/30 06:39:58;;;;;;;42.80;22.65;;;;;;;7.39;73.60;99480.25;6215777;23;20115;-76
2022/03/30 06:42:23;;;;;;;42.53;22.35;;;;;;;7.38;73.87;99477.81;6242807;23;20011;-74
2022/03/30 06:44:56;;;;;;;47.40;23.27;;;;;;;7.34;73.75;99472.06;6217842;23;20004;-73
2022/03/30 06:47:22;;;;;;;40.78;19.85;;;;;;;7.42;73.92;99482.44;6215130;23;20008;-73
2022/03/30 06:53:17;;;;;;;47.42;22.63;;;;;;;7.45;73.49;99492.78;6198184;23;20058;-72
2022/03/30 06:55:45;;;;;;;46.45;23.35;;;;;;;7.44;72.91;99491.16;6217491;23;20008;-74
2022/03/30 06:58:11;;;;;;;45.47;21.05;;;;;;;7.45;73.42;99490.06;6191710;23;20423;-71
2022/03/30 07:00:39;;;;;;;46.35;20.83;;;;;;;7.40;73.18;99483.78;6242562;23;20023;-72
2022/03/30 07:03:05;;;;;;;45.78;23.70;;;;;;;7.42;72.09;99496.03;6195507;23;20331;-71
2022/03/30 07:05:33;;;;;;;48.53;21.88;;;;;;;7.27;73.28;99479.66;6217137;23;20015;-74
2022/03/30 07:10:54;;;;;;;45.72;21.17;;;;;;;7.50;72.60;99490.09;6247096;23;20019;-74
2022/03/30 07:13:22;;;;;;;40.80;19.52;;;;;;;7.62;72.76;99491.72;6199127;23;20104;-76
2022/03/30 07:15:50;;;;;;;39.78;20.77;;;;;;;7.72;72.16;99490.94;6217817;23;20008;-73
2022/03/30 07:18:15;;;;;;;42.55;20.48;;;;;;;7.76;72.62;99490.13;6247756;23;20061;-73
2022/03/30 07:20:43;;;;;;;36.25;19.27;;;;;;;7.80;72.58;99488.50;6246189;23;20004;-73
2022/03/30 07:23:10;;;;;;;44.67;22.13;;;;;;;7.93;72.14;99499.94;6192089;23;20024;-73
2022/03/30 07:25:36;;;;;;;44.08;20.00;;;;;;;7.89;72.26;99501.59;6221130;23;20008;-73
2022/03/30 07:28:03;;;;;;;44.80;21.75;;;;;;;7.96;72.66;99502.13;6244514;23;20008;-75
2022/03/30 07:30:30;;;;;;;42.00;21.23;;;;;;;8.03;71.24;99497.22;6217805;22;20027;-73
2022/03/30 07:32:56;;;;;;;38.72;19.02;;;;;;;8.14;72.44;99496.13;6194231;23;20014;-74
2022/03/30 07:35:32;;;;;;;40.72;17.73;;;;;;;8.33;71.91;99495.59;6245602;23;20077;-73
2022/03/30 07:45:25;;;;;;;39.95;19.30;;;;;;;8.59;69.38;99465.63;6228671;23;20331;-74
2022/03/30 07:48:01;;;;;;;;;;;;;;;;;;;;;
2022/03/30 07:50:57;;;;;;;36.78;19.42;;;;;;;8.80;68.77;99482.72;6222479;23;20391;-76
2022/03/30 07:53:25;;;;;;;35.60;17.55;;;;;;;8.60;69.13;99434.53;6221128;23;20032;-74
2022/03/30 07:55:53;;;;;;;34.80;18.15;;;;;;;8.89;68.60;99468.25;6219621;23;20435;-74
2022/03/30 07:58:20;;;;;;;37.08;19.63;;;;;;;8.95;67.86;99484.56;6221327;23;20019;-73
2022/03/30 08:00:49;;;;;;;48.40;23.63;;;;;;;8.59;68.19;99458.25;6245085;23;20004;-70
2022/03/30 08:03:16;;;;;;;37.78;20.85;;;;;;;8.36;67.91;99465.06;6193018;23;20435;-72
2022/03/30 08:05:42;;;;;;;37.28;19.63;;;;;;;8.30;68.77;99475.16;6220174;23;20023;-72
2022/03/30 08:08:07;;;;;;;46.42;23.10;;;;;;;8.19;69.66;99474.34;6193185;23;20008;-73
2022/03/30 08:13:28;;;;;;;42.97;21.05;;;;;;;8.12;69.76;99468.38;6244763;23;20480;-74
2022/03/30 08:15:53;;;;;;;42.78;19.73;;;;;;;7.97;70.59;99457.47;6195151;23;20020;-74
2022/03/30 08:18:27;;;;;;;47.05;22.35;;;;;;;8.13;70.17;99478.19;6219402;23;20036;-72
2022/03/30 08:23:42;;;;;;;43.35;20.27;;;;;;;8.02;70.63;99468.38;6225157;23;20019;-74
2022/03/30 08:26:08;;;;;;;42.17;20.77;;;;;;;8.04;69.69;99452.56;6246434;23;20004;-75
2022/03/30 08:28:54;;;;;;;43.35;21.02;;;;;;;8.27;70.06;99480.34;6246954;23;20455;-73
2022/03/30 08:31:43;;;;;;;41.85;21.00;;;;;;;8.44;69.49;99482.75;6175693;23;20027;-73
2022/03/30 08:34:09;;;;;;;45.65;19.23;;;;;;;8.53;68.94;99476.50;6218628;23;20024;-72
2022/03/30 08:36:35;;;;;;;44.20;20.00;;;;;;;8.56;68.27;99478.69;6218260;23;20097;-74
2022/03/30 08:39:11;;;;;;;38.10;17.70;;;;;;;8.35;68.57;99445.19;6219098;23;20008;-73
2022/03/30 08:41:47;;;;;;;40.05;18.85;;;;;;;8.62;68.03;99481.41;6219044;23;20008;-74
2022/03/30 08:44:14;;;;;;;43.58;21.42;;;;;;;8.74;68.51;99487.38;6246984;23;20067;-73
2022/03/30 08:46:47;;;;;;;39.15;19.60;;;;;;;8.70;67.90;99467.19;6244995;23;20331;-73
2022/03/30 08:49:14;;;;;;;34.03;18.38;;;;;;;8.61;67.95;99452.53;6246790;23;20003;-74
2022/03/30 08:51:42;;;;;;;44.90;19.83;;;;;;;8.83;67.86;99477.50;6246314;23;20679;-74
2022/03/30 08:54:12;;;;;;;41.20;18.92;;;;;;;8.90;67.58;99491.66;6221770;23;20075;-73
2022/03/30 08:56:40;;;;;;;42.42;19.75;;;;;;;8.97;67.11;99487.84;6219703;23;20019;-74
2022/03/30 08:59:08;;;;;;;39.33;18.77;;;;;;;9.02;67.60;99493.28;6246626;23;20386;-73
2022/03/30 09:01:36;;;;;;;36.33;18.75;;;;;;;9.15;66.76;99481.75;6247057;23;20008;-74
2022/03/30 09:04:05;;;;;;;43.85;17.85;;;;;;;9.31;66.25;99484.44;6247221;23;20307;-73
2022/03/30 09:06:39;;;;;;;37.13;17.10;;;;;;;9.46;66.11;99489.78;6244100;23;20008;-72
2022/03/30 09:09:06;;;;;;;42.85;18.90;;;;;;;9.59;65.89;99482.91;6217211;23;20008;-73
2022/03/30 09:11:40;;;;;;;40.88;19.75;;;;;;;9.65;65.41;99476.34;6219359;23;20546;-73
2022/03/30 09:14:09;;;;;;;41.25;19.73;;;;;;;9.74;64.91;99480.09;6246038;23;20004;-76
2022/03/30 09:16:44;;;;;;;34.28;17.90;;;;;;;9.86;65.13;99482.47;6221450;23;20026;-73
2022/03/30 09:19:14;;;;;;;39.13;19.05;;;;;;;9.99;64.58;99474.69;6248400;23;20055;-71
2022/03/30 09:21:59;;;;;;;39.33;20.25;;;;;;;10.03;64.08;99470.31;6255335;23;20004;-73
2022/03/30 09:24:30;;;;;;;35.85;18.63;;;;;;;10.04;64.01;99480.13;6244084;23;20107;-74
2022/03/30 09:26:57;;;;;;;31.73;15.35;;;;;;;10.13;63.79;99471.06;6246605;23;19996;-73
2022/03/30 09:29:25;;;;;;;26.35;12.32;;;;;;;10.36;63.79;99473.34;6245540;23;20008;-74
2022/03/30 09:31:52;;;;;;;35.08;17.23;;;;;;;10.53;62.85;99473.72;6219404;22;20080;-73
2022/03/30 09:34:21;;;;;;;32.30;17.10;;;;;;;10.57;62.51;99474.78;6221454;23;20015;-73
2022/03/30 09:36:50;;;;;;;40.03;19.50;;;;;;;10.62;61.86;99476.63;6223098;23;20473;-74
2022/03/30 09:39:33;;;;;;;39.58;18.13;;;;;;;10.49;61.92;99478.13;6221120;23;20074;-73
2022/03/30 09:42:00;;;;;;;31.52;16.35;;;;;;;10.54;62.08;99469.88;6220853;23;20008;-73
2022/03/30 09:44:30;;;;;;;31.42;16.98;;;;;;;10.60;62.13;99478.81;6220945;23;20083;-73
2022/03/30 09:46:58;;;;;;;34.47;16.75;;;;;;;10.68;62.06;99477.41;6221021;23;20031;-73
2022/03/30 09:49:33;;;;;;;35.88;17.60;;;;;;;10.63;61.60;99479.09;6248492;23;20027;-73
2022/03/30 09:51:59;;;;;;;31.33;16.15;;;;;;;10.65;61.53;99474.13;6248557;23;20000;-74
2022/03/30 09:54:38;;;;;;;39.85;17.80;;;;;;;10.54;61.25;99463.59;6221174;23;20080;-73
2022/03/30 09:57:11;;;;;;;31.58;17.33;;;;;;;10.64;61.48;99480.72;6246170;23;20007;-74
2022/03/30 10:00:02;;;;;;;39.38;17.02;;;;;;;10.69;61.42;99476.28;6217740;23;20546;-75
2022/03/30 10:02:32;;;;;;;30.35;16.33;;;;;;;10.72;61.49;99453.81;6253089;23;20114;-74
2022/03/30 10:04:59;;;;;;;30.63;14.93;;;;;;;11.07;60.67;99468.19;6250595;23;20411;-73
2022/03/30 10:07:27;;;;;;;27.50;14.18;;;;;;;11.42;60.61;99460.59;6192932;23;20357;-73
2022/03/30 10:10:01;;;;;;;23.50;11.77;;;;;;;11.76;59.63;99460.38;6247749;23;20008;-78
2022/03/30 10:12:28;;;;;;;37.22;18.30;;;;;;;11.76;58.90;99462.31;6245558;23;20327;-74
2022/03/30 10:14:55;;;;;;;36.33;18.23;;;;;;;11.74;58.67;99467.28;6245892;23;20010;-75
2022/03/30 10:17:32;;;;;;;34.63;17.67;;;;;;;11.63;58.00;99461.94;6246461;23;20007;-75
2022/03/30 10:20:01;;;;;;;38.50;17.95;;;;;;;11.53;58.23;99462.09;6246555;23;20004;-78
2022/03/30 10:22:57;;;;;;;34.80;17.23;;;;;;;11.54;58.23;99469.22;6217053;23;20011;-75
2022/03/30 10:25:49;;;;;;;37.50;17.20;;;;;;;11.43;58.65;99473.19;6246034;23;20011;-73
2022/03/30 10:28:43;;;;;;;32.35;17.85;;;;;;;11.40;59.16;99468.31;6245197;23;20007;-74
2022/03/30 10:31:20;;;;;;;;;;;;;;;;;;;;;
2022/03/30 10:33:46;;;;;;;28.60;14.68;;;;;;;11.31;59.08;99462.69;6221724;23;20576;-74
2022/03/30 10:36:27;;;;;;;34.13;15.35;;;;;;;11.32;58.79;99454.19;6243796;23;20042;-73
2022/03/30 10:39:17;;;;;;;25.42;13.30;;;;;;;11.59;58.49;99460.91;6245275;23;20011;-74
2022/03/30 10:42:03;;;;;;;20.55;11.85;;;;;;;11.85;58.70;99474.22;6217836;23;20008;-75
2022/03/30 10:44:49;;;;;;;29.80;14.63;;;;;;;12.12;57.78;99461.75;6244506;23;20065;-74
2022/03/30 10:47:34;;;;;;;29.30;15.32;;;;;;;12.21;57.84;99465.47;6245513;23;20016;-74
2022/03/30 10:50:02;;;;;;;34.83;16.73;;;;;;;12.05;56.68;99451.22;6218323;23;20062;-73
2022/03/30 10:52:38;;;;;;;25.25;14.82;;;;;;;12.06;56.96;99455.56;6218984;23;20083;-74
2022/03/30 10:55:12;;;;;;;29.30;16.17;;;;;;;12.17;56.65;99456.22;6245068;23;20120;-73
2022/03/30 10:57:48;;;;;;;32.55;17.13;;;;;;;12.29;55.67;99451.06;6244666;23;20056;-75
2022/03/30 11:00:19;;;;;;;26.70;14.77;;;;;;;12.39;56.35;99461.84;6217463;23;20019;-73
2022/03/30 11:02:45;;;;;;;33.70;14.57;;;;;;;12.46;55.91;99463.41;6216648;23;20008;-75
2022/03/30 11:05:18;;;;;;;27.13;13.32;;;;;;;12.66;56.21;99454.78;6242872;23;20008;-74
2022/03/30 11:07:43;;;;;;;22.15;12.52;;;;;;;12.96;54.90;99451.75;6214085;23;20011;-74
2022/03/30 11:10:24;;;;;;;28.42;14.80;;;;;;;13.26;54.30;99439.31;6215629;23;20349;-76
2022/03/30 11:13:04;;;;;;;28.45;14.82;;;;;;;13.41;54.10;99449.97;6217702;23;20008;-74
2022/03/30 11:15:31;;;;;;;31.30;15.18;;;;;;;13.44;53.43;99435.63;6248724;23;20023;-75
2022/03/30 11:18:20;;;;;;;34.88;17.40;;;;;;;13.56;53.61;99442.50;6225876;23;20054;-75
2022/03/30 11:21:19;;;;;;;28.65;15.30;;;;;;;13.74;53.58;99449.78;6246779;23;20123;-75
2022/03/30 11:24:11;;;;;;;21.83;12.63;;;;;;;14.01;52.70;99448.03;6219618;23;20067;-75
2022/03/30 11:27:19;;;;;;;;;;;;;;;;;;;;;
2022/03/30 11:29:57;;;;;;;28.90;15.10;;;;;;;14.51;51.00;99438.75;6216808;22;20393;-77
2022/03/30 11:32:23;;;;;;;32.00;15.27;;;;;;;14.58;50.21;99446.56;6251921;22;20105;-74
2022/03/30 11:35:21;;;;;;;27.35;14.82;;;;;;;14.36;50.60;99451.00;6248366;22;19999;-74
2022/03/30 11:37:57;;;;;;;33.67;16.02;;;;;;;13.92;50.70;99453.47;6273490;22;20007;-73
2022/03/30 11:40:33;;;;;;;29.38;16.02;;;;;;;13.71;51.81;99444.91;6273819;22;20004;-73
2022/03/30 11:42:59;;;;;;;26.58;14.10;;;;;;;13.70;52.01;99443.28;6245915;22;20004;-71
2022/03/30 11:45:29;;;;;;;31.02;14.40;;;;;;;13.48;51.95;99418.50;6272775;22;20011;-74
2022/03/30 11:48:10;;;;;;;28.55;14.38;;;;;;;13.58;52.01;99435.59;6248092;22;20043;-74
2022/03/30 11:50:45;;;;;;;31.13;16.65;;;;;;;13.38;52.08;99423.13;6274769;22;20011;-74
2022/03/30 11:53:41;;;;;;;31.77;15.02;;;;;;;13.37;52.39;99435.22;6213944;22;20007;-75
2022/03/30 11:56:10;;;;;;;28.65;16.48;;;;;;;13.06;52.42;99410.34;6225348;22;20090;-73
2022/03/30 11:58:40;;;;;;;28.52;14.20;;;;;;;13.21;53.04;99431.16;6215179;22;20011;-72